createdAt,value
2019-05-02T00:01:49.076Z,11.20
2019-05-02T00:04:20.109Z,11.20
2019-05-02T00:06:50.382Z,11.10
2019-05-02T00:09:19.709Z,11.20
2019-05-02T00:11:58.477Z,11.20
2019-05-02T00:14:33.878Z,11.20
2019-05-02T00:16:58.974Z,11.20
2019-05-02T00:19:27.521Z,11.10
2019-05-02T00:21:55.943Z,11.10
2019-05-02T00:24:25.616Z,11.00
2019-05-02T00:26:56.214Z,11.00
2019-05-02T00:29:25.052Z,11.00
2019-05-02T00:31:53.622Z,10.90
2019-05-02T00:34:22.880Z,10.90
2019-05-02T00:36:52.776Z,10.90
2019-05-02T00:39:20.690Z,10.90
2019-05-02T00:41:49.355Z,11.00
2019-05-02T00:44:17.679Z,10.90
2019-05-02T00:46:46.256Z,10.80
2019-05-02T00:49:14.781Z,10.90
2019-05-02T00:51:43.579Z,10.90
2019-05-02T00:54:12.145Z,10.90
2019-05-02T00:56:44.203Z,10.90
2019-05-02T00:59:10.881Z,10.90
2019-05-02T01:02:00.128Z,11.00
2019-05-02T01:04:34.047Z,11.00
2019-05-02T01:07:03.725Z,10.90
2019-05-02T01:09:34.132Z,11.00
2019-05-02T01:12:03.158Z,11.00
2019-05-02T01:14:33.293Z,10.90
2019-05-02T01:17:02.166Z,10.90
2019-05-02T01:19:30.541Z,10.90
2019-05-02T01:21:58.981Z,10.70
2019-05-02T01:24:27.445Z,10.70
2019-05-02T01:27:13.780Z,10.70
2019-05-02T01:29:43.988Z,10.60
2019-05-02T01:32:14.032Z,10.60
2019-05-02T01:34:43.417Z,10.50
2019-05-02T01:37:29.229Z,10.50
2019-05-02T01:39:57.827Z,10.50
2019-05-02T01:42:38.736Z,10.60
2019-05-02T01:44:56.515Z,10.60
2019-05-02T01:47:29.055Z,10.60
2019-05-02T01:49:57.224Z,10.60
2019-05-02T01:52:24.964Z,10.60
2019-05-02T01:54:53.594Z,10.50
2019-05-02T01:57:21.987Z,10.50
2019-05-02T01:59:50.420Z,10.60
2019-05-02T02:02:18.845Z,10.80
2019-05-02T02:04:47.494Z,11.00
2019-05-02T02:07:20.132Z,11.00
2019-05-02T02:09:45.807Z,11.10
2019-05-02T02:12:14.329Z,10.90
2019-05-02T02:14:43.092Z,10.90
2019-05-02T02:17:15.487Z,10.90
2019-05-02T02:19:43.406Z,10.80
2019-05-02T02:22:16.361Z,10.80
2019-05-02T02:24:46.460Z,10.80
2019-05-02T02:27:14.396Z,10.90
2019-05-02T02:29:44.120Z,10.90
2019-05-02T02:32:13.450Z,11.00
2019-05-02T02:34:41.985Z,11.00
2019-05-02T02:37:13.047Z,11.10
2019-05-02T02:39:41.010Z,11.10
2019-05-02T02:42:09.913Z,11.10
2019-05-02T02:44:51.823Z,11.10
2019-05-02T02:47:21.198Z,11.10
2019-05-02T02:49:55.930Z,11.10
2019-05-02T02:52:21.753Z,11.20
2019-05-02T02:54:49.550Z,11.10
2019-05-02T02:57:26.025Z,11.00
2019-05-02T02:59:47.277Z,11.00
2019-05-02T03:02:15.640Z,11.00
2019-05-02T03:04:46.035Z,11.00
2019-05-02T03:07:24.486Z,11.00
2019-05-02T03:09:46.851Z,11.00
2019-05-02T03:12:23.058Z,11.00
2019-05-02T03:14:59.044Z,10.90
2019-05-02T03:17:28.714Z,10.90
2019-05-02T03:20:01.701Z,10.80
2019-05-02T03:22:27.446Z,10.80
2019-05-02T03:24:55.821Z,10.70
2019-05-02T03:27:29.712Z,10.70
2019-05-02T03:29:54.422Z,10.60
2019-05-02T03:32:33.037Z,10.60
2019-05-02T03:34:54.246Z,10.60
2019-05-02T03:37:23.912Z,10.60
2019-05-02T03:39:57.579Z,10.50
2019-05-02T03:42:22.453Z,10.40
2019-05-02T03:44:57.241Z,10.40
2019-05-02T03:47:30.451Z,10.40
2019-05-02T03:49:58.897Z,10.40
2019-05-02T03:52:27.681Z,10.30
2019-05-02T03:54:56.620Z,10.20
2019-05-02T03:57:32.913Z,10.10
2019-05-02T03:59:57.066Z,10.00
2019-05-02T04:02:25.740Z,10.00
2019-05-02T04:04:59.987Z,10.00
2019-05-02T04:07:23.952Z,10.00
2019-05-02T04:09:59.972Z,10.10
2019-05-02T04:12:32.534Z,10.20
2019-05-02T04:14:58.995Z,10.30
2019-05-02T04:17:29.106Z,10.50
2019-05-02T04:19:58.516Z,10.80
2019-05-02T04:22:29.927Z,11.20
2019-05-02T04:25:06.197Z,11.60
2019-05-02T04:27:34.233Z,11.90
2019-05-02T04:30:11.445Z,12.00
2019-05-02T04:32:37.665Z,12.00
2019-05-02T04:35:09.379Z,11.80
2019-05-02T04:37:43.743Z,11.70
2019-05-02T04:40:12.525Z,11.80
2019-05-02T04:42:51.244Z,12.20
2019-05-02T04:45:26.486Z,12.70
2019-05-02T04:47:54.545Z,13.20
2019-05-02T04:50:18.540Z,13.70
2019-05-02T04:52:48.196Z,14.10
2019-05-02T04:55:26.037Z,14.30
2019-05-02T04:57:54.010Z,14.60
2019-05-02T05:00:38.946Z,14.80
2019-05-02T05:03:23.087Z,15.00
2019-05-02T05:05:58.773Z,15.30
2019-05-02T05:08:26.209Z,15.60
2019-05-02T05:10:58.076Z,15.70
2019-05-02T05:13:28.980Z,15.70
2019-05-02T05:15:57.463Z,15.90
2019-05-02T05:18:27.396Z,16.10
2019-05-02T05:20:57.639Z,16.30
2019-05-02T05:23:28.097Z,16.50
2019-05-02T05:26:03.481Z,16.90
2019-05-02T05:28:30.098Z,17.30
2019-05-02T05:31:16.459Z,17.40
2019-05-02T05:33:42.944Z,17.80
2019-05-02T05:36:11.839Z,18.10
2019-05-02T05:38:42.084Z,18.30
2019-05-02T05:41:13.155Z,18.60
2019-05-02T05:43:50.116Z,18.70
2019-05-02T05:46:22.319Z,18.90
2019-05-02T05:48:50.967Z,18.60
2019-05-02T05:51:20.743Z,18.90
2019-05-02T05:53:52.275Z,19.10
2019-05-02T05:56:21.909Z,19.50
2019-05-02T05:58:59.201Z,19.60
2019-05-02T06:01:39.112Z,20.40
2019-05-02T06:04:23.378Z,19.90
2019-05-02T06:06:53.951Z,19.00
2019-05-02T06:09:21.023Z,17.70
2019-05-02T06:11:55.305Z,17.10
2019-05-02T06:14:24.894Z,16.70
2019-05-02T06:16:58.643Z,16.30
2019-05-02T06:19:36.270Z,16.10
2019-05-02T06:22:09.058Z,15.70
2019-05-02T06:24:56.004Z,15.40
2019-05-02T06:27:26.058Z,15.30
2019-05-02T06:29:57.480Z,15.10
2019-05-02T06:32:26.371Z,15.20
2019-05-02T06:34:56.890Z,15.10
2019-05-02T06:37:25.838Z,15.00
2019-05-02T06:39:56.589Z,14.80
2019-05-02T06:42:32.740Z,14.80
2019-05-02T06:45:07.547Z,14.80
2019-05-02T06:47:43.578Z,14.90
2019-05-02T06:50:16.677Z,15.00
2019-05-02T06:52:45.419Z,15.00
2019-05-02T06:55:15.619Z,15.40
2019-05-02T06:57:51.811Z,16.10
2019-05-02T07:00:35.621Z,17.40
2019-05-02T07:02:52.808Z,19.00
2019-05-02T07:05:27.168Z,19.60
2019-05-02T07:07:56.109Z,20.70
2019-05-02T07:10:33.667Z,21.70
2019-05-02T07:13:10.842Z,22.30
2019-05-02T07:16:24.039Z,22.40
2019-05-02T07:18:55.015Z,21.70
2019-05-02T07:21:24.877Z,22.00
2019-05-02T07:24:02.193Z,21.80
2019-05-02T07:26:35.069Z,21.10
2019-05-02T07:29:03.776Z,20.10
2019-05-02T07:31:34.258Z,19.30
2019-05-02T07:34:03.262Z,19.00
2019-05-02T07:36:36.402Z,19.90
2019-05-02T07:39:06.389Z,22.00
2019-05-02T07:41:38.676Z,23.00
2019-05-02T07:44:14.220Z,23.90
2019-05-02T07:46:52.117Z,24.00
2019-05-02T07:49:20.555Z,23.90
2019-05-02T07:51:52.238Z,24.20
2019-05-02T07:54:26.845Z,24.60
2019-05-02T07:57:12.735Z,25.50
2019-05-02T08:00:04.261Z,24.70
2019-05-02T08:02:34.185Z,24.60
2019-05-02T08:05:03.314Z,25.30
2019-05-02T08:07:42.943Z,25.90
2019-05-02T08:10:16.180Z,25.90
2019-05-02T08:12:41.155Z,26.40
2019-05-02T08:15:13.251Z,25.80
2019-05-02T08:17:53.338Z,25.70
2019-05-02T08:20:19.176Z,25.20
2019-05-02T08:22:50.986Z,25.50
2019-05-02T08:25:19.704Z,25.20
2019-05-02T08:27:54.989Z,25.70
2019-05-02T08:30:27.715Z,25.50
2019-05-02T08:33:05.920Z,25.90
2019-05-02T08:35:35.413Z,25.60
2019-05-02T08:38:06.844Z,26.40
2019-05-02T08:40:37.474Z,26.30
2019-05-02T08:43:11.832Z,25.40
2019-05-02T08:45:43.036Z,25.20
2019-05-02T08:48:11.885Z,25.40
2019-05-02T08:50:40.747Z,26.10
2019-05-02T08:53:14.280Z,26.10
2019-05-02T08:55:49.608Z,26.30
2019-05-02T08:58:20.897Z,26.40
2019-05-02T09:00:52.247Z,25.80
2019-05-02T09:03:21.169Z,26.60
2019-05-02T09:06:04.964Z,26.70
2019-05-02T09:08:23.329Z,26.60
2019-05-02T09:10:54.409Z,26.20
2019-05-02T09:13:29.105Z,26.70
2019-05-02T09:15:57.312Z,26.40
2019-05-02T09:18:35.023Z,24.30
2019-05-02T09:20:56.873Z,24.00
2019-05-02T09:23:27.592Z,24.90
2019-05-02T09:26:11.901Z,23.90
2019-05-02T09:28:36.061Z,23.10
2019-05-02T09:31:06.835Z,22.30
2019-05-02T09:33:45.182Z,21.30
2019-05-02T09:36:14.064Z,20.80
2019-05-02T09:39:07.986Z,19.90
2019-05-02T09:41:36.777Z,20.70
2019-05-02T09:44:14.546Z,20.30
2019-05-02T09:46:42.840Z,19.80
2019-05-02T09:49:16.372Z,19.80
2019-05-02T09:51:50.430Z,20.70
2019-05-02T09:54:22.832Z,21.10
2019-05-02T09:56:53.956Z,21.70
2019-05-02T09:59:50.611Z,22.10
2019-05-02T10:02:16.590Z,22.40
2019-05-02T10:05:13.270Z,22.10
2019-05-02T10:08:02.964Z,21.90
2019-05-02T10:10:37.114Z,21.30
2019-05-02T10:13:05.233Z,22.60
2019-05-02T10:15:35.769Z,22.50
2019-05-02T10:18:11.056Z,22.50
2019-05-02T10:20:36.666Z,23.10
2019-05-02T10:23:19.569Z,23.50
2019-05-02T10:25:46.916Z,24.20
2019-05-02T10:28:24.729Z,23.90
2019-05-02T10:30:56.570Z,23.60
2019-05-02T10:33:27.923Z,22.70
2019-05-02T10:35:55.242Z,22.20
2019-05-02T10:38:32.374Z,23.40
2019-05-02T10:41:02.658Z,23.20
2019-05-02T10:43:32.784Z,23.00
2019-05-02T10:46:02.959Z,23.40
2019-05-02T10:48:36.437Z,22.50
2019-05-02T10:51:18.910Z,22.30
2019-05-02T10:53:52.679Z,22.60
2019-05-02T10:56:22.133Z,22.80
2019-05-02T10:58:52.638Z,22.10
2019-05-02T11:01:22.785Z,22.40
2019-05-02T11:03:53.107Z,22.70
2019-05-02T11:06:22.425Z,23.10
2019-05-02T11:08:52.399Z,23.40
2019-05-02T11:11:21.867Z,23.00
2019-05-02T11:14:05.674Z,23.20
2019-05-02T11:16:34.691Z,23.60
2019-05-02T11:19:12.878Z,23.70
2019-05-02T11:21:54.935Z,23.80
2019-05-02T11:24:14.339Z,23.40
2019-05-02T11:26:43.022Z,23.10
2019-05-02T11:29:12.151Z,22.40
2019-05-02T11:31:42.776Z,21.50
2019-05-02T11:34:12.484Z,21.40
2019-05-02T11:36:42.045Z,21.70
2019-05-02T11:39:20.664Z,22.20
2019-05-02T11:41:44.107Z,22.20
2019-05-02T11:44:12.550Z,22.20
2019-05-02T11:46:43.066Z,22.30
2019-05-02T11:49:12.707Z,21.90
2019-05-02T11:51:42.198Z,21.90
2019-05-02T11:54:13.035Z,22.00
2019-05-02T11:56:48.896Z,21.90
2019-05-02T11:59:14.979Z,22.00
2019-05-02T12:01:56.939Z,21.80
2019-05-02T12:04:16.992Z,21.40
2019-05-02T12:07:01.005Z,21.40
2019-05-02T12:09:27.881Z,21.10
2019-05-02T12:11:59.793Z,21.00
2019-05-02T12:14:32.793Z,21.20
2019-05-02T12:17:02.947Z,21.30
2019-05-02T12:19:35.381Z,21.50
2019-05-02T12:22:07.278Z,21.50
2019-05-02T12:24:36.487Z,21.30
2019-05-02T12:27:06.685Z,20.70
2019-05-02T12:29:42.665Z,20.60
2019-05-02T12:32:12.036Z,20.50
2019-05-02T12:34:42.030Z,20.70
2019-05-02T12:37:12.495Z,20.50
2019-05-02T12:39:45.198Z,20.20
2019-05-02T12:42:19.054Z,20.70
2019-05-02T12:44:58.815Z,20.80
2019-05-02T12:47:31.901Z,20.80
2019-05-02T12:50:11.975Z,20.90
2019-05-02T12:52:44.862Z,21.10
2019-05-02T12:55:14.869Z,21.20
2019-05-02T12:57:45.209Z,21.30
2019-05-02T13:00:22.782Z,21.10
2019-05-02T13:02:54.597Z,20.90
2019-05-02T13:05:49.582Z,20.70
2019-05-02T13:08:22.797Z,20.40
2019-05-02T13:11:06.677Z,20.40
2019-05-02T13:13:46.469Z,20.20
2019-05-02T13:16:24.551Z,19.70
2019-05-02T13:19:03.079Z,19.60
2019-05-02T13:21:41.927Z,20.00
2019-05-02T13:24:16.452Z,20.30
2019-05-02T13:26:44.660Z,20.20
2019-05-02T13:29:12.971Z,20.00
2019-05-02T13:31:52.769Z,19.80
2019-05-02T13:34:25.483Z,19.90
2019-05-02T13:36:58.285Z,20.30
2019-05-02T13:39:34.482Z,20.40
2019-05-02T13:42:13.325Z,20.40
2019-05-02T13:44:46.000Z,20.30
2019-05-02T13:47:16.185Z,20.30
2019-05-02T13:49:54.156Z,20.20
2019-05-02T13:52:17.739Z,20.30
2019-05-02T13:54:56.352Z,20.20
2019-05-02T13:57:24.993Z,19.80
2019-05-02T13:59:55.628Z,19.70
2019-05-02T14:02:42.643Z,19.70
2019-05-02T14:05:12.856Z,19.80
2019-05-02T14:07:55.674Z,19.70
2019-05-02T14:10:22.833Z,19.80
2019-05-02T14:12:58.770Z,20.00
2019-05-02T14:15:29.751Z,20.00
2019-05-02T14:18:02.490Z,19.90
2019-05-02T14:20:37.124Z,19.90
2019-05-02T14:23:12.148Z,19.80
2019-05-02T14:25:42.576Z,20.00
2019-05-02T14:28:12.959Z,20.10
2019-05-02T14:30:46.365Z,19.80
2019-05-02T14:33:20.409Z,19.80
2019-05-02T14:35:49.261Z,20.00
2019-05-02T14:38:23.019Z,19.90
2019-05-02T14:40:57.402Z,19.80
2019-05-02T14:43:46.885Z,19.90
2019-05-02T14:46:17.565Z,19.80
2019-05-02T14:48:45.874Z,19.70
2019-05-02T14:51:16.805Z,19.60
2019-05-02T14:53:45.473Z,19.60
2019-05-02T14:56:22.795Z,19.50
2019-05-02T14:58:52.833Z,19.40
2019-05-02T15:01:26.091Z,19.40
2019-05-02T15:03:58.469Z,19.40
2019-05-02T15:06:26.440Z,19.20
2019-05-02T15:08:55.074Z,19.10
2019-05-02T15:11:30.410Z,18.90
2019-05-02T15:13:53.959Z,18.90
2019-05-02T15:16:29.073Z,19.00
2019-05-02T15:18:56.891Z,19.00
2019-05-02T15:21:23.393Z,18.90
2019-05-02T15:23:54.461Z,18.90
2019-05-02T15:26:26.219Z,19.00
2019-05-02T15:28:53.044Z,18.80
2019-05-02T15:31:34.346Z,18.80
2019-05-02T15:34:08.235Z,18.70
2019-05-02T15:36:42.273Z,18.70
2019-05-02T15:41:44.600Z,18.80
2019-05-02T15:44:12.770Z,18.80
2019-05-02T15:46:42.489Z,18.70
2019-05-02T15:49:12.303Z,18.60
2019-05-02T15:51:43.728Z,18.60
2019-05-02T15:54:18.858Z,18.60
2019-05-02T15:57:00.785Z,18.60
2019-05-02T15:59:37.676Z,18.60
2019-05-02T16:02:06.120Z,18.50
2019-05-02T16:04:36.416Z,18.40
2019-05-02T16:07:08.356Z,18.30
2019-05-02T16:09:36.645Z,18.30
2019-05-02T16:12:06.231Z,18.10
2019-05-02T16:14:36.288Z,18.00
2019-05-02T16:17:08.671Z,18.00
2019-05-02T16:19:40.074Z,18.00
2019-05-02T16:22:13.063Z,18.00
2019-05-02T16:24:43.972Z,18.00
2019-05-02T16:27:11.800Z,18.00
2019-05-02T16:29:41.700Z,18.00
2019-05-02T16:32:17.099Z,17.90
2019-05-02T16:34:56.728Z,17.90
2019-05-02T16:37:25.163Z,17.80
2019-05-02T16:39:53.482Z,17.70
2019-05-02T16:42:24.108Z,17.70
2019-05-02T16:44:54.712Z,17.70
2019-05-02T16:47:23.561Z,17.70
2019-05-02T16:49:56.716Z,17.60
2019-05-02T16:52:27.693Z,17.60
2019-05-02T16:55:02.723Z,17.60
2019-05-02T16:57:35.962Z,17.50
2019-05-02T17:00:15.585Z,17.40
2019-05-02T17:02:47.277Z,17.30
2019-05-02T17:05:16.952Z,17.30
2019-05-02T17:08:03.644Z,17.10
2019-05-02T17:10:35.016Z,17.00
2019-05-02T17:13:04.868Z,17.00
2019-05-02T17:15:36.761Z,17.00
2019-05-02T17:18:12.954Z,16.90
2019-05-02T17:20:36.008Z,16.90
2019-05-02T17:23:07.429Z,16.80
2019-05-02T17:25:34.655Z,16.70
2019-05-02T17:28:09.742Z,16.60
2019-05-02T17:30:39.394Z,16.60
2019-05-02T17:33:07.319Z,16.50
2019-05-02T17:35:34.513Z,16.40
2019-05-02T17:38:03.547Z,16.30
2019-05-02T17:40:32.397Z,16.20
2019-05-02T17:43:05.506Z,16.10
2019-05-02T17:45:33.377Z,15.90
2019-05-02T17:48:10.397Z,15.70
2019-05-02T17:50:54.899Z,15.50
2019-05-02T17:53:22.522Z,15.30
2019-05-02T17:55:52.476Z,15.10
2019-05-02T17:58:21.573Z,14.90
2019-05-02T18:00:57.022Z,14.80
2019-05-02T18:03:34.531Z,14.70
2019-05-02T18:06:02.517Z,14.50
2019-05-02T18:08:29.300Z,14.30
2019-05-02T18:11:00.275Z,14.20
2019-05-02T18:13:34.019Z,14.00
2019-05-02T18:16:00.310Z,14.00
2019-05-02T18:18:31.802Z,13.90
2019-05-02T18:21:02.064Z,13.80
2019-05-02T18:23:32.278Z,13.80
2019-05-02T18:26:04.488Z,13.60
2019-05-02T18:28:32.504Z,13.60
2019-05-02T18:31:05.729Z,13.60
2019-05-02T18:33:35.827Z,13.60
2019-05-02T18:36:04.574Z,13.50
2019-05-02T18:38:34.390Z,13.50
2019-05-02T18:41:07.933Z,13.40
2019-05-02T18:43:43.490Z,13.40
2019-05-02T18:46:12.660Z,13.30
2019-05-02T18:48:46.766Z,13.30
2019-05-02T18:51:17.113Z,13.20
2019-05-02T18:53:45.658Z,13.20
2019-05-02T18:56:22.720Z,13.00
2019-05-02T18:58:58.090Z,12.90
2019-05-02T19:01:26.882Z,12.90
2019-05-02T19:03:56.349Z,12.80
2019-05-02T19:06:27.900Z,12.80
2019-05-02T19:08:58.014Z,12.80
2019-05-02T19:11:32.003Z,12.80
2019-05-02T19:13:59.783Z,12.90
2019-05-02T19:16:29.292Z,12.90
2019-05-02T19:19:02.031Z,12.90
2019-05-02T19:21:35.460Z,12.90
2019-05-02T19:24:02.289Z,12.90
2019-05-02T19:26:32.613Z,12.80
2019-05-02T19:29:15.723Z,12.80
2019-05-02T19:31:46.101Z,12.80
2019-05-02T19:34:16.984Z,12.80
2019-05-02T19:36:44.425Z,12.70
2019-05-02T19:39:13.708Z,12.80
2019-05-02T19:41:44.098Z,12.70
2019-05-02T19:44:15.296Z,12.70
2019-05-02T19:46:44.011Z,12.70
2019-05-02T19:49:16.273Z,12.60
2019-05-02T19:51:45.172Z,12.60
2019-05-02T19:54:14.203Z,12.60
2019-05-02T19:56:47.471Z,12.50
2019-05-02T19:59:16.739Z,12.60
2019-05-02T20:01:46.607Z,12.60
2019-05-02T20:04:18.326Z,12.70
2019-05-02T20:06:52.310Z,13.00
2019-05-02T20:09:23.169Z,13.30
2019-05-02T20:11:52.095Z,13.50
2019-05-02T20:14:21.963Z,13.60
2019-05-02T20:16:52.903Z,13.70
2019-05-02T20:19:23.234Z,13.60
2019-05-02T20:22:02.094Z,13.50
2019-05-02T20:24:29.294Z,13.40
2019-05-02T20:26:58.542Z,13.30
2019-05-02T20:29:27.072Z,13.30
2019-05-02T20:31:56.320Z,13.20
2019-05-02T20:34:24.656Z,13.10
2019-05-02T20:36:56.495Z,13.00
2019-05-02T20:39:25.191Z,13.00
2019-05-02T20:41:54.295Z,12.90
2019-05-02T20:44:23.078Z,12.90
2019-05-02T20:47:04.329Z,12.90
2019-05-02T20:49:35.014Z,12.90
2019-05-02T20:52:06.021Z,12.90
2019-05-02T20:54:37.241Z,12.90
2019-05-02T20:57:07.719Z,12.90
2019-05-02T20:59:36.431Z,13.00
2019-05-02T21:02:12.252Z,13.00
2019-05-02T21:04:45.353Z,13.00
2019-05-02T21:07:22.618Z,12.90
2019-05-02T21:10:09.599Z,12.90
2019-05-02T21:12:42.378Z,12.90
2019-05-02T21:15:18.206Z,12.90
2019-05-02T21:17:51.554Z,12.90
2019-05-02T21:20:27.280Z,12.90
2019-05-02T21:23:05.274Z,12.90
2019-05-02T21:25:35.605Z,12.90
2019-05-02T21:28:26.157Z,12.80
2019-05-02T21:30:58.215Z,12.70
2019-05-02T21:33:38.556Z,12.60
2019-05-02T21:36:07.755Z,12.50
2019-05-02T21:38:37.214Z,12.30
2019-05-02T21:41:12.597Z,12.10
2019-05-02T21:43:42.634Z,12.10
2019-05-02T21:46:13.376Z,12.00
2019-05-02T21:48:48.294Z,11.90
2019-05-02T21:51:25.573Z,11.90
2019-05-02T21:54:07.777Z,11.80
2019-05-02T21:56:43.041Z,11.70
2019-05-02T21:59:14.535Z,11.60
2019-05-02T22:01:55.451Z,11.50
2019-05-02T22:04:37.720Z,11.50
2019-05-02T22:07:03.800Z,11.50
2019-05-02T22:09:34.493Z,11.60
2019-05-02T22:12:04.585Z,11.50
2019-05-02T22:14:34.956Z,11.30
2019-05-02T22:17:12.840Z,11.20
2019-05-02T22:19:47.381Z,11.10
2019-05-02T22:22:17.096Z,11.10
2019-05-02T22:24:47.900Z,11.00
2019-05-02T22:27:16.424Z,11.00
2019-05-02T22:29:44.989Z,11.00
2019-05-02T22:32:18.387Z,11.00
2019-05-02T22:34:46.748Z,11.00
2019-05-02T22:37:16.751Z,10.90
2019-05-02T22:39:54.986Z,10.90
2019-05-02T22:42:23.500Z,10.90
2019-05-02T22:44:52.174Z,10.80
2019-05-02T22:47:22.609Z,10.80
2019-05-02T22:49:51.835Z,10.80
2019-05-02T22:52:21.794Z,10.90
2019-05-02T22:54:49.594Z,11.00
2019-05-02T22:57:17.977Z,11.10
2019-05-02T22:59:47.144Z,11.20
2019-05-02T23:02:15.517Z,11.20
2019-05-02T23:04:45.628Z,11.30
2019-05-02T23:07:13.346Z,11.30
2019-05-02T23:09:43.718Z,11.30
2019-05-02T23:12:13.180Z,11.40
2019-05-02T23:14:41.896Z,11.50
2019-05-02T23:17:12.770Z,11.50
2019-05-02T23:19:42.335Z,11.50
2019-05-02T23:22:12.717Z,11.60
2019-05-02T23:24:42.949Z,11.60
2019-05-02T23:27:13.395Z,11.60
2019-05-02T23:29:42.536Z,11.50
2019-05-02T23:32:11.387Z,11.60
2019-05-02T23:34:41.776Z,11.60
2019-05-02T23:37:11.953Z,11.50
2019-05-02T23:39:43.393Z,11.40
2019-05-02T23:42:13.499Z,11.30
2019-05-02T23:44:42.555Z,11.30
2019-05-02T23:47:11.705Z,11.10
2019-05-02T23:49:40.198Z,11.00
2019-05-02T23:52:08.625Z,10.90
2019-05-02T23:54:48.885Z,10.90
2019-05-02T23:57:06.271Z,10.80
2019-05-02T23:59:34.797Z,10.90
